Time;durP1;ratioP1;P1;durP2;ratioP2;P2;SDS_P1;SDS_P2;PMS_P1;PMS_P2;Temp;Humidity;BMP_temperature;BMP_pressure;BME280_temperature;BME280_humidity;BME280_pressure;Samples;Min_cycle;Max_cycle;Signal;HPM_P1;HPM_P2
2021/04/14 00:00:37;;;;;;;2.63;2.42;;;19.60;51.50;;;;;;5047983;28;20024;-40
2021/04/14 00:03:04;;;;;;;2.40;2.20;;;19.50;51.60;;;;;;5045311;28;20033;-42
2021/04/14 00:05:33;;;;;;;2.00;1.90;;;19.50;51.60;;;;;;5043758;28;20401;-43
2021/04/14 00:07:59;;;;;;;2.85;1.98;;;19.50;51.70;;;;;;5044452;28;20032;-40
2021/04/14 00:10:26;;;;;;;2.08;1.90;;;19.50;51.60;;;;;;5044858;28;20028;-40
2021/04/14 00:12:51;;;;;;;2.33;2.13;;;19.50;51.80;;;;;;5046794;28;20025;-40
2021/04/14 00:15:22;;;;;;;2.50;1.95;;;19.50;51.80;;;;;;5044922;28;20488;-41
2021/04/14 00:17:47;;;;;;;2.42;2.10;;;19.50;52.30;;;;;;5045374;28;20094;-43
2021/04/14 00:20:13;;;;;;;1.88;1.77;;;19.50;51.70;;;;;;5045007;28;20805;-38
2021/04/14 00:22:39;;;;;;;1.90;1.80;;;19.50;51.70;;;;;;5042664;28;20048;-43
2021/04/14 00:25:06;;;;;;;1.67;1.58;;;19.40;51.80;;;;;;5026223;28;20033;-45
2021/04/14 00:27:35;;;;;;;1.60;1.50;;;19.40;51.90;;;;;;5047196;28;20078;-43
2021/04/14 06:28:48;;;;;;;3.08;0.75;;;17.50;54.60;;;;;;4708912;28;10001904;-41
2021/04/14 06:31:13;;;;;;;0.63;0.55;;;17.70;55.00;;;;;;5041447;28;20510;-41
2021/04/14 06:33:42;;;;;;;0.70;0.70;;;17.80;54.80;;;;;;5041752;28;20812;-39
2021/04/14 06:36:08;;;;;;;0.60;0.60;;;17.80;54.70;;;;;;5042598;28;20028;-41
2021/04/14 06:38:38;;;;;;;0.63;0.63;;;17.90;54.70;;;;;;5043867;28;20037;-38
2021/04/14 06:42:06;;;;;;;0.65;0.60;;;17.90;54.40;;;;;;5045413;28;20025;-41
2021/04/14 06:44:29;;;;;;;1.45;0.98;;;18.00;54.30;;;;;;5027144;27;20049;-43
2021/04/14 06:46:56;;;;;;;0.80;0.80;;;18.10;54.00;;;;;;5045933;28;20022;-44
2021/04/14 06:49:38;;;;;;;0.80;0.80;;;18.10;53.90;;;;;;5024037;28;20035;-41
2021/04/14 06:52:16;;;;;;;3.28;0.77;;;18.20;53.70;;;;;;5056935;27;20027;-43
2021/04/14 06:55:00;;;;;;;1.05;0.82;;;18.30;53.70;;;;;;5051714;27;20054;-43
2021/04/14 06:57:31;;;;;;;0.73;0.73;;;18.30;54.20;;;;;;5026411;28;20049;-43
2021/04/14 07:00:06;;;;;;;0.85;0.85;;;18.40;53.40;;;;;;5029029;27;20021;-43
2021/04/14 07:02:40;;;;;;;1.10;1.02;;;18.40;53.30;;;;;;5051792;28;20409;-43
2021/04/14 07:05:09;;;;;;;;;;;18.60;53.20;;;;;;5026674;28;20105;-43
2021/04/14 07:07:36;;;;;;;1.67;0.80;;;18.50;53.10;;;;;;5041825;28;20007;-45
2021/04/14 07:10:24;;;;;;;0.80;0.80;;;18.60;53.00;;;;;;5048150;27;20532;-42
2021/04/14 07:12:50;;;;;;;0.88;0.88;;;18.60;52.90;;;;;;5043292;28;20032;-43
2021/04/14 07:15:17;;;;;;;0.70;0.70;;;18.60;53.00;;;;;;5022846;28;20037;-43
2021/04/14 07:17:45;;;;;;;0.80;0.80;;;18.60;53.00;;;;;;5041340;28;20030;-43
2021/04/14 07:20:39;;;;;;;0.95;0.80;;;18.60;52.90;;;;;;5042873;28;20486;-44
2021/04/14 07:23:36;;;;;;;0.90;0.90;;;18.60;52.80;;;;;;5039888;28;20053;-44
2021/04/14 07:26:08;;;;;;;0.90;0.90;;;18.70;52.70;;;;;;5044136;28;20064;-43
2021/04/14 07:28:58;;;;;;;1.25;0.77;;;18.80;52.50;;;;;;5035921;28;20050;-41
2021/04/14 07:31:30;;;;;;;0.70;0.70;;;18.90;52.10;;;;;;5026752;28;20498;-44
2021/04/14 07:34:02;;;;;;;0.90;0.90;;;19.10;51.50;;;;;;5030328;28;20030;-42
2021/04/14 07:36:58;;;;;;;1.20;1.10;;;19.40;50.80;;;;;;5029053;28;20126;-42
2021/04/14 07:40:05;;;;;;;1.10;1.10;;;19.50;50.50;;;;;;5027065;28;20081;-44
2021/04/14 07:42:59;;;;;;;0.70;0.70;;;19.70;50.20;;;;;;4966457;28;20042;-44
2021/04/14 07:45:31;;;;;;;0.73;0.73;;;19.80;49.70;;;;;;4942062;28;20039;-43
2021/04/14 07:48:08;;;;;;;0.80;0.80;;;19.80;49.80;;;;;;4957781;28;20047;-44
2021/04/14 07:50:41;;;;;;;0.93;0.90;;;19.70;50.30;;;;;;4959593;28;20535;-43
2021/04/14 07:53:20;;;;;;;0.60;0.60;;;19.50;50.60;;;;;;4969699;28;20558;-44
2021/04/14 07:55:46;;;;;;;1.80;1.00;;;19.30;52.10;;;;;;4987203;28;20069;-35
2021/04/14 07:58:24;;;;;;;0.63;0.60;;;19.40;54.80;;;;;;4945456;28;20078;-39
2021/04/14 08:00:49;;;;;;;0.80;0.80;;;19.60;54.10;;;;;;4922954;28;20039;-36
2021/04/14 08:03:37;;;;;;;4.63;0.80;;;19.80;53.40;;;;;;4929190;28;20580;-33
2021/04/14 08:06:19;;;;;;;0.90;0.80;;;19.70;51.50;;;;;;4946005;28;20066;-34
2021/04/14 08:08:46;;;;;;;1.00;1.00;;;19.40;53.10;;;;;;4949966;28;20412;-42
2021/04/14 08:11:26;;;;;;;1.00;0.88;;;19.20;53.30;;;;;;4923073;28;20039;-41
2021/04/14 08:13:52;;;;;;;0.98;0.80;;;19.20;54.10;;;;;;4971685;28;20059;-42
2021/04/14 08:16:48;;;;;;;1.30;1.00;;;19.10;53.80;;;;;;4987117;28;20053;-41
2021/04/14 08:19:19;;;;;;;1.15;0.88;;;19.10;54.40;;;;;;5012047;28;20103;-43
2021/04/14 08:21:57;;;;;;;1.13;0.82;;;19.00;54.40;;;;;;4986570;28;20031;-45
2021/04/14 08:24:35;;;;;;;0.73;0.73;;;19.00;55.00;;;;;;4972373;28;20055;-45
2021/04/14 08:27:03;;;;;;;0.65;0.65;;;18.90;55.10;;;;;;5018530;28;20054;-44
2021/04/14 08:29:28;;;;;;;0.73;0.73;;;19.00;55.40;;;;;;4985923;28;20045;-43
2021/04/14 08:31:56;;;;;;;0.85;0.80;;;19.00;55.40;;;;;;4984786;28;20141;-40
2021/04/14 08:34:31;;;;;;;0.70;0.70;;;19.00;55.60;;;;;;4984038;28;20062;-40
2021/04/14 08:37:02;;;;;;;4.35;0.93;;;19.00;55.00;;;;;;4984699;28;20057;-43
2021/04/14 08:39:36;;;;;;;0.80;0.80;;;19.10;55.10;;;;;;4981426;28;20046;-43
2021/04/14 08:42:35;;;;;;;2.08;0.80;;;19.00;54.80;;;;;;4979263;28;20062;-42
2021/04/14 08:45:05;;;;;;;2.30;0.90;;;19.10;54.70;;;;;;4982399;28;20054;-42
2021/04/14 08:47:32;;;;;;;1.65;0.80;;;19.10;54.70;;;;;;4962957;28;20039;-42
2021/04/14 08:50:11;;;;;;;0.90;0.90;;;19.10;54.80;;;;;;4983816;28;20586;-36
2021/04/14 08:52:39;;;;;;;0.73;0.73;;;19.20;54.60;;;;;;4984214;28;20087;-43
2021/04/14 08:55:06;;;;;;;0.95;0.70;;;19.30;54.40;;;;;;5017705;28;20184;-42
2021/04/14 08:57:31;;;;;;;1.05;0.70;;;19.40;54.40;;;;;;4984384;28;20129;-40
2021/04/14 08:59:57;;;;;;;0.93;0.80;;;19.40;54.40;;;;;;4984988;28;20095;-42
2021/04/14 09:02:23;;;;;;;0.82;0.80;;;19.30;54.40;;;;;;4982474;28;20173;-41
2021/04/14 09:04:49;;;;;;;1.00;0.90;;;19.30;54.60;;;;;;4984544;28;20172;-43
2021/04/14 09:07:16;;;;;;;0.80;0.80;;;19.30;55.40;;;;;;4984050;28;20093;-41
2021/04/14 09:09:47;;;;;;;1.55;0.82;;;19.40;55.80;;;;;;4965738;28;20030;-41
2021/04/14 09:12:13;;;;;;;0.80;0.80;;;19.70;56.00;;;;;;4980767;28;20199;-39
2021/04/14 09:14:39;;;;;;;0.93;0.93;;;19.80;55.80;;;;;;4969345;28;20154;-39
2021/04/14 09:17:17;;;;;;;1.10;1.10;;;19.80;55.10;;;;;;4984384;28;20532;-42
2021/04/14 09:19:50;;;;;;;1.27;1.27;;;19.80;55.90;;;;;;4981152;28;21760;-41
2021/04/14 09:22:16;;;;;;;1.10;0.70;;;19.90;55.70;;;;;;4982809;28;20138;-40
2021/04/14 09:24:51;;;;;;;0.80;0.80;;;19.80;55.60;;;;;;4976408;28;20081;-40
2021/04/14 09:27:36;;;;;;;0.90;0.80;;;19.80;56.50;;;;;;4980014;28;20058;-40
2021/04/14 09:30:27;;;;;;;2.00;1.40;;;19.80;56.30;;;;;;4982400;28;20042;-39
2021/04/14 09:33:05;;;;;;;1.30;1.20;;;19.80;56.20;;;;;;4977926;28;20038;-41
2021/04/14 09:35:30;;;;;;;1.08;0.98;;;19.90;56.20;;;;;;4981986;28;20133;-43
2021/04/14 09:40:46;;;;;;;4.85;1.10;;;20.00;56.10;;;;;;4973612;28;20046;-39
2021/04/14 09:43:31;;;;;;;2.08;0.80;;;20.00;55.60;;;;;;4973485;28;20065;-40
2021/04/14 09:45:58;;;;;;;1.40;1.30;;;20.10;55.50;;;;;;4981973;28;20126;-41
2021/04/14 09:48:24;;;;;;;1.25;1.15;;;20.10;55.40;;;;;;4980584;28;20408;-43
2021/04/14 09:50:50;;;;;;;1.48;1.38;;;20.10;56.10;;;;;;4983132;28;20046;-39
2021/04/14 09:53:20;;;;;;;1.40;1.30;;;20.10;56.00;;;;;;4983885;28;20054;-42
2021/04/14 09:55:53;;;;;;;2.40;1.60;;;20.20;56.00;;;;;;4997106;28;20073;-42
2021/04/14 09:58:29;;;;;;;2.53;1.35;;;20.20;55.90;;;;;;4962954;28;20047;-41
2021/04/14 10:01:29;;;;;;;2.15;1.60;;;20.30;55.70;;;;;;4978387;28;20062;-47
2021/04/14 10:04:05;;;;;;;1.88;1.63;;;20.40;55.50;;;;;;5034978;28;20043;-46
2021/04/14 10:06:31;;;;;;;5.85;1.80;;;20.40;54.80;;;;;;4984567;28;20096;-38
2021/04/14 10:08:59;;;;;;;2.95;1.50;;;20.40;54.40;;;;;;4980357;28;20524;-39
2021/04/14 10:11:31;;;;;;;1.52;1.42;;;20.60;54.10;;;;;;4980987;28;20111;-36
2021/04/14 10:14:17;;;;;;;1.52;1.42;;;20.60;53.70;;;;;;4988687;28;20042;-41
2021/04/14 10:16:43;;;;;;;2.88;1.73;;;20.60;53.80;;;;;;5002949;28;20103;-40
2021/04/14 10:19:10;;;;;;;1.55;1.45;;;20.60;54.00;;;;;;4980817;28;20117;-39
2021/04/14 10:21:36;;;;;;;1.70;1.60;;;20.60;53.40;;;;;;4982556;28;20054;-41
2021/04/14 10:24:06;;;;;;;2.10;1.60;;;20.60;53.20;;;;;;4983143;28;20035;-42
2021/04/14 10:26:33;;;;;;;2.20;1.70;;;20.70;53.00;;;;;;4978413;28;20088;-44
2021/04/14 10:28:59;;;;;;;2.45;2.00;;;20.70;53.10;;;;;;4975895;28;20137;-39
2021/04/14 10:31:25;;;;;;;5.50;2.40;;;20.70;52.90;;;;;;4976702;28;20046;-41
2021/04/14 10:33:51;;;;;;;2.42;2.30;;;20.80;52.90;;;;;;5000305;28;20087;-37
2021/04/14 10:36:33;;;;;;;2.35;2.15;;;20.80;52.90;;;;;;4972204;28;20055;-42
2021/04/14 10:39:08;;;;;;;2.15;1.98;;;20.80;52.70;;;;;;4977977;28;20524;-40
2021/04/14 10:41:38;;;;;;;2.08;1.98;;;20.70;52.70;;;;;;4776131;28;10001221;-38
2021/04/14 10:44:16;;;;;;;4.28;2.75;;;20.80;52.80;;;;;;4962800;28;20263;-38
2021/04/14 10:46:42;;;;;;;5.10;2.40;;;20.80;52.80;;;;;;4962654;28;20074;-40
2021/04/14 10:49:11;;;;;;;3.47;3.17;;;20.70;52.90;;;;;;4970230;28;20057;-39
2021/04/14 10:51:45;;;;;;;4.40;3.25;;;20.70;52.90;;;;;;4976835;28;20127;-39
2021/04/14 10:54:11;;;;;;;2.93;2.73;;;20.70;52.90;;;;;;4979986;28;20108;-39
2021/04/14 10:56:36;;;;;;;3.30;3.00;;;20.70;52.20;;;;;;4979079;28;20306;-43
2021/04/14 10:59:04;;;;;;;3.35;3.03;;;20.70;51.70;;;;;;4977574;28;20084;-41
2021/04/14 11:01:33;;;;;;;3.65;3.17;;;20.70;50.90;;;;;;4979527;28;20250;-42
2021/04/14 11:04:04;;;;;;;2.97;2.67;;;20.60;50.20;;;;;;4974931;28;21839;-41
2021/04/14 11:06:30;;;;;;;3.33;3.10;;;20.60;49.90;;;;;;4974567;28;20055;-40
2021/04/14 11:08:56;;;;;;;3.97;2.90;;;20.60;50.70;;;;;;4977376;28;20051;-40
2021/04/14 11:11:22;;;;;;;3.63;3.38;;;20.50;50.00;;;;;;4973385;28;20523;-39
2021/04/14 11:13:49;;;;;;;3.50;3.20;;;20.50;48.80;;;;;;4964270;28;20039;-43
2021/04/14 11:16:15;;;;;;;2.97;2.58;;;20.40;47.50;;;;;;4965297;28;20038;-45
2021/04/14 11:18:42;;;;;;;2.85;2.65;;;20.40;49.40;;;;;;4962012;28;20061;-41
2021/04/14 11:21:26;;;;;;;3.08;2.78;;;20.40;48.40;;;;;;4961125;28;20138;-39
2021/04/14 11:24:01;;;;;;;3.78;3.05;;;20.50;48.80;;;;;;4955299;28;20496;-45
2021/04/14 11:26:27;;;;;;;3.40;3.10;;;20.50;46.60;;;;;;4966093;28;20074;-42
2021/04/14 11:28:56;;;;;;;2.67;2.47;;;20.60;46.60;;;;;;4979905;28;20085;-39
2021/04/14 11:31:28;;;;;;;3.17;2.97;;;20.60;47.30;;;;;;4976151;28;20067;-44
2021/04/14 11:33:53;;;;;;;2.58;2.45;;;20.60;44.60;;;;;;4981363;28;20584;-42
2021/04/14 11:36:28;;;;;;;3.60;3.25;;;20.60;47.50;;;;;;4979637;28;20134;-43
2021/04/14 11:39:13;;;;;;;3.00;2.83;;;20.50;43.00;;;;;;4972524;28;20120;-43
2021/04/14 11:41:40;;;;;;;2.28;2.17;;;20.60;46.10;;;;;;4981570;28;20620;-45
2021/04/14 11:44:19;;;;;;;3.08;2.80;;;20.50;46.50;;;;;;4972229;28;20067;-39
2021/04/14 11:47:02;;;;;;;2.95;2.75;;;20.50;44.70;;;;;;4986125;28;20030;-45
2021/04/14 11:49:33;;;;;;;2.33;2.10;;;20.50;43.40;;;;;;4983897;28;20049;-43
2021/04/14 11:52:01;;;;;;;2.47;2.30;;;20.60;44.00;;;;;;4993892;28;20137;-41
2021/04/14 11:54:32;;;;;;;2.20;2.10;;;20.70;45.10;;;;;;5007504;28;20074;-44
2021/04/14 11:57:11;;;;;;;2.17;2.00;;;20.70;45.80;;;;;;4981252;28;20139;-43
2021/04/14 11:59:37;;;;;;;2.00;1.90;;;20.60;45.80;;;;;;4980909;28;20050;-44
2021/04/14 12:02:12;;;;;;;2.75;1.92;;;20.50;46.10;;;;;;4985625;28;20057;-42
2021/04/14 12:04:38;;;;;;;2.03;1.92;;;20.40;46.30;;;;;;4978847;28;20053;-43
2021/04/14 12:07:04;;;;;;;2.20;2.00;;;20.30;46.20;;;;;;4958763;28;20046;-42
2021/04/14 12:09:29;;;;;;;2.42;1.60;;;20.30;46.10;;;;;;4984645;28;20126;-43
2021/04/14 12:12:00;;;;;;;1.90;1.80;;;20.30;46.50;;;;;;4977508;28;20046;-46
2021/04/14 12:14:25;;;;;;;1.60;1.48;;;20.30;46.30;;;;;;4980657;28;20064;-42
2021/04/14 12:16:51;;;;;;;1.98;1.60;;;20.30;46.50;;;;;;4971480;28;21662;-45
2021/04/14 12:19:16;;;;;;;4.20;1.80;;;20.30;46.30;;;;;;4964484;28;20039;-45
2021/04/14 12:21:42;;;;;;;1.50;1.40;;;20.30;46.90;;;;;;4981598;28;20495;-43
2021/04/14 12:24:08;;;;;;;1.15;1.05;;;20.30;46.40;;;;;;4982416;28;20039;-45
2021/04/14 12:26:33;;;;;;;2.35;1.30;;;20.40;46.30;;;;;;4982103;28;20042;-43
2021/04/14 12:28:59;;;;;;;1.20;1.20;;;20.40;46.60;;;;;;4983608;28;20039;-45
2021/04/14 12:31:24;;;;;;;1.35;1.30;;;20.30;46.60;;;;;;4986567;28;20046;-43
2021/04/14 12:33:50;;;;;;;1.10;1.00;;;20.30;47.00;;;;;;4985832;28;20112;-41
2021/04/14 12:36:16;;;;;;;1.30;1.20;;;20.30;47.10;;;;;;4982543;28;20057;-42
2021/04/14 12:38:42;;;;;;;1.73;1.20;;;20.40;45.80;;;;;;4984713;28;20149;-47
2021/04/14 12:41:07;;;;;;;2.67;1.27;;;20.50;46.00;;;;;;4984571;28;20076;-43
2021/04/14 12:43:33;;;;;;;1.30;1.20;;;20.60;46.10;;;;;;4985860;28;20049;-41
2021/04/14 12:45:59;;;;;;;0.80;0.80;;;20.60;46.30;;;;;;4985075;28;20038;-43
2021/04/14 12:48:26;;;;;;;1.25;1.20;;;20.50;46.60;;;;;;4984366;28;20054;-44
2021/04/14 12:51:03;;;;;;;2.22;1.45;;;20.40;46.40;;;;;;4982668;28;20069;-45
2021/04/14 12:53:31;;;;;;;1.05;0.95;;;20.40;47.70;;;;;;4984053;28;20046;-45
2021/04/14 12:55:57;;;;;;;0.98;0.98;;;20.40;46.70;;;;;;4972816;28;20054;-45
2021/04/14 12:58:37;;;;;;;0.60;0.60;;;20.50;47.80;;;;;;4973740;28;20488;-44
2021/04/14 13:01:03;;;;;;;0.93;0.70;;;20.60;47.70;;;;;;5048296;28;20050;-44
2021/04/14 13:03:29;;;;;;;0.73;0.73;;;20.60;46.80;;;;;;4992305;28;20440;-44
2021/04/14 13:05:58;;;;;;;0.70;0.70;;;20.60;47.00;;;;;;4972394;28;20042;-43
2021/04/14 13:08:26;;;;;;;0.80;0.80;;;20.60;47.00;;;;;;4972889;28;20420;-43
2021/04/14 13:11:18;;;;;;;0.85;0.70;;;20.70;46.50;;;;;;4967335;28;20069;-44
2021/04/14 13:13:44;;;;;;;2.63;0.70;;;20.90;46.50;;;;;;4980876;28;20047;-43
2021/04/14 13:16:14;;;;;;;0.80;0.80;;;21.00;46.20;;;;;;4974009;28;20389;-41
2021/04/14 13:18:40;;;;;;;6.07;0.85;;;21.00;46.40;;;;;;4990392;28;20057;-45
2021/04/14 13:21:11;;;;;;;0.75;0.70;;;21.00;46.20;;;;;;4991463;28;20087;-41
2021/04/14 13:23:47;;;;;;;1.08;0.60;;;21.00;45.70;;;;;;4993028;28;20037;-42
2021/04/14 13:26:30;;;;;;;0.77;0.77;;;21.00;46.40;;;;;;4970715;28;20137;-40
2021/04/14 13:29:21;;;;;;;0.70;0.68;;;21.00;45.70;;;;;;4997958;28;20061;-44
2021/04/14 13:31:50;;;;;;;1.15;0.80;;;21.10;45.90;;;;;;4988568;28;20073;-35
2021/04/14 13:34:34;;;;;;;0.80;0.80;;;21.20;46.10;;;;;;5013682;28;20057;-48
2021/04/14 13:37:05;;;;;;;0.80;0.80;;;21.10;45.90;;;;;;4969339;28;20057;-43
2021/04/14 13:39:48;;;;;;;1.60;1.00;;;21.10;46.50;;;;;;5012338;27;20133;-47
2021/04/14 13:42:17;;;;;;;1.25;0.90;;;21.00;46.10;;;;;;5014829;28;20419;-43
2021/04/14 13:45:13;;;;;;;1.20;0.93;;;21.00;46.50;;;;;;4979224;28;20042;-49
2021/04/14 13:47:53;;;;;;;1.00;0.90;;;21.00;47.10;;;;;;5031110;28;20033;-46
2021/04/14 13:50:51;;;;;;;1.10;0.45;;;20.90;47.30;;;;;;4977219;28;20050;-44
2021/04/14 13:53:16;;;;;;;0.60;0.60;;;20.80;47.80;;;;;;4977691;28;20050;-44
2021/04/14 13:55:42;;;;;;;0.57;0.57;;;20.80;48.00;;;;;;4983111;28;20377;-45
2021/04/14 13:58:17;;;;;;;2.63;0.65;;;20.80;47.70;;;;;;4980277;28;20064;-45
2021/04/14 14:00:48;;;;;;;1.08;0.70;;;20.80;47.60;;;;;;4995991;28;20047;-44
2021/04/14 14:03:14;;;;;;;1.88;1.00;;;20.70;48.40;;;;;;5003542;28;20451;-43
2021/04/14 14:05:41;;;;;;;1.65;0.82;;;20.70;48.40;;;;;;5002927;28;20364;-43
2021/04/14 14:08:15;;;;;;;0.60;0.50;;;20.60;48.40;;;;;;4996041;28;20042;-43
2021/04/14 14:10:59;;;;;;;0.70;0.70;;;20.70;47.90;;;;;;4998742;28;20573;-44
2021/04/14 14:13:31;;;;;;;0.95;0.70;;;20.70;48.30;;;;;;4963015;28;20387;-45
2021/04/14 14:16:06;;;;;;;2.00;0.70;;;20.70;48.50;;;;;;5014014;28;20095;-41
2021/04/14 14:18:31;;;;;;;0.63;0.60;;;20.60;48.60;;;;;;4991385;28;20058;-43
2021/04/14 14:21:00;;;;;;;0.57;0.57;;;20.50;49.00;;;;;;4985484;28;20050;-45
2021/04/14 14:23:26;;;;;;;2.63;1.40;;;20.70;49.00;;;;;;4985617;28;20098;-43
2021/04/14 14:25:56;;;;;;;1.23;1.10;;;20.70;49.30;;;;;;4978871;28;20419;-44
2021/04/14 14:28:22;;;;;;;3.50;0.93;;;20.80;49.30;;;;;;5004314;28;20096;-43
2021/04/14 14:30:52;;;;;;;2.05;0.73;;;20.70;48.90;;;;;;4986000;28;21448;-44
2021/04/14 14:33:18;;;;;;;2.15;1.30;;;20.80;48.90;;;;;;4975393;28;20054;-46
2021/04/14 14:35:44;;;;;;;2.75;1.30;;;20.70;48.80;;;;;;4987166;28;20030;-44
2021/04/14 14:38:16;;;;;;;1.45;1.35;;;20.60;48.90;;;;;;5038852;28;20049;-44
2021/04/14 14:40:44;;;;;;;9.05;5.85;;;20.60;49.10;;;;;;4987862;28;20073;-44
2021/04/14 14:43:15;;;;;;;9.95;6.78;;;20.60;50.10;;;;;;4635089;28;10000159;-44
2021/04/14 14:45:56;;;;;;;11.88;7.85;;;20.70;49.70;;;;;;5001523;28;20056;-44
2021/04/14 14:48:30;;;;;;;14.52;10.05;;;20.70;49.80;;;;;;4982000;28;20465;-45
2021/04/14 14:50:57;;;;;;;14.43;10.02;;;20.80;49.80;;;;;;4992051;28;20447;-45
2021/04/14 14:53:23;;;;;;;14.68;9.70;;;20.70;50.10;;;;;;4970695;28;20057;-46
2021/04/14 14:55:49;;;;;;;20.30;10.77;;;20.60;50.20;;;;;;5000555;28;20050;-43
2021/04/14 14:58:20;;;;;;;17.20;10.73;;;20.70;50.80;;;;;;4993780;28;20050;-46
2021/04/14 15:00:45;;;;;;;16.23;9.85;;;20.70;50.40;;;;;;4985838;28;20054;-46
2021/04/14 15:03:11;;;;;;;17.77;10.52;;;20.60;50.90;;;;;;4978299;28;20172;-46
2021/04/14 15:05:38;;;;;;;17.02;10.55;;;20.70;50.60;;;;;;4976332;28;20054;-43
2021/04/14 15:08:04;;;;;;;20.73;11.90;;;20.70;50.60;;;;;;4985413;28;20042;-43
2021/04/14 15:10:32;;;;;;;21.90;11.25;;;20.80;50.40;;;;;;4985527;28;20038;-42
2021/04/14 15:12:58;;;;;;;18.77;11.85;;;20.70;50.70;;;;;;4989376;28;20050;-44
2021/04/14 15:15:24;;;;;;;18.88;10.68;;;20.70;50.90;;;;;;4987697;28;20054;-41
2021/04/14 15:17:50;;;;;;;17.27;10.20;;;20.70;50.50;;;;;;4996516;28;20046;-42
2021/04/14 15:20:18;;;;;;;15.00;9.13;;;20.80;50.40;;;;;;5003885;28;20046;-41
2021/04/14 15:22:45;;;;;;;16.48;9.32;;;20.80;50.40;;;;;;5003298;28;20461;-42
2021/04/14 15:25:12;;;;;;;13.80;9.20;;;20.80;50.40;;;;;;4990145;28;20082;-43
2021/04/14 15:27:38;;;;;;;16.27;9.07;;;20.80;50.40;;;;;;4986044;28;20419;-43
2021/04/14 15:30:11;;;;;;;13.35;8.65;;;20.80;50.40;;;;;;4978828;28;20515;-44
2021/04/14 15:32:39;;;;;;;11.57;8.23;;;20.90;50.10;;;;;;5019508;28;20053;-43
2021/04/14 15:35:06;;;;;;;15.10;9.15;;;20.90;50.00;;;;;;4997780;28;20507;-46
2021/04/14 15:37:32;;;;;;;10.57;8.02;;;21.00;49.90;;;;;;5029488;28;20052;-44
2021/04/14 15:39:58;;;;;;;11.50;8.15;;;21.00;50.10;;;;;;4992746;28;20092;-38
2021/04/14 15:42:23;;;;;;;12.13;8.60;;;20.90;50.80;;;;;;4987409;28;20075;-45
2021/04/14 15:44:50;;;;;;;13.18;7.95;;;21.00;49.80;;;;;;4989061;28;20053;-46
2021/04/14 15:47:17;;;;;;;15.20;8.77;;;20.90;50.20;;;;;;4972311;28;20055;-44
2021/04/14 15:49:43;;;;;;;10.73;7.88;;;20.90;50.40;;;;;;4999370;28;20487;-44
2021/04/14 15:52:08;;;;;;;13.18;7.70;;;20.90;50.50;;;;;;4979276;28;20039;-43
2021/04/14 15:54:34;;;;;;;10.25;7.85;;;20.90;50.40;;;;;;4982474;28;20559;-45
2021/04/14 15:57:02;;;;;;;11.13;7.32;;;20.90;50.30;;;;;;4981936;28;20054;-45
2021/04/14 15:59:27;;;;;;;13.18;7.75;;;20.80;50.10;;;;;;4984262;28;20416;-45
2021/04/14 16:01:58;;;;;;;6.82;6.07;;;20.80;50.10;;;;;;4980456;28;20051;-44
2021/04/14 16:04:23;;;;;;;9.20;6.53;;;20.80;50.10;;;;;;4983622;28;20050;-42
2021/04/14 16:06:50;;;;;;;11.07;6.68;;;20.80;50.30;;;;;;4986190;28;20046;-41
2021/04/14 16:09:18;;;;;;;11.20;5.68;;;20.90;50.90;;;;;;4981964;28;20055;-40
2021/04/14 16:11:43;;;;;;;9.93;6.03;;;21.10;50.00;;;;;;4984790;28;20603;-42
2021/04/14 16:14:09;;;;;;;9.15;6.68;;;21.00;49.90;;;;;;4984015;28;20121;-40
2021/04/14 16:16:36;;;;;;;9.30;6.85;;;20.90;50.00;;;;;;4989115;28;20450;-42
2021/04/14 16:19:02;;;;;;;8.88;6.38;;;20.80;49.90;;;;;;4969723;28;20116;-41
2021/04/14 16:21:28;;;;;;;7.10;5.95;;;20.80;50.10;;;;;;4980098;28;20108;-45
2021/04/14 16:23:54;;;;;;;6.38;5.78;;;20.70;50.10;;;;;;4985295;28;20043;-45
2021/04/14 16:26:20;;;;;;;7.80;5.90;;;20.60;50.10;;;;;;4972653;28;20050;-42
2021/04/14 16:28:47;;;;;;;6.05;5.50;;;20.60;50.20;;;;;;4996014;28;20108;-42
2021/04/14 16:31:13;;;;;;;10.60;5.78;;;20.60;50.40;;;;;;5030792;28;20051;-37
2021/04/14 16:33:38;;;;;;;7.85;5.95;;;20.50;50.50;;;;;;4978065;28;20046;-43
2021/04/14 16:36:04;;;;;;;6.07;5.50;;;20.60;50.40;;;;;;4979180;28;20043;-43
2021/04/14 16:38:30;;;;;;;5.80;5.10;;;20.70;50.20;;;;;;4974878;28;20101;-44
2021/04/14 16:40:56;;;;;;;6.18;5.22;;;20.60;49.90;;;;;;4964394;28;20047;-45
2021/04/14 16:43:22;;;;;;;8.02;5.50;;;20.60;50.10;;;;;;4983061;28;20525;-41
2021/04/14 16:45:48;;;;;;;6.20;4.75;;;20.60;50.20;;;;;;4988042;28;20054;-43
2021/04/14 16:48:14;;;;;;;7.72;5.28;;;20.60;50.30;;;;;;4986921;28;20046;-42
2021/04/14 16:50:40;;;;;;;7.05;4.82;;;20.60;50.30;;;;;;4978951;28;20037;-44
2021/04/14 16:53:07;;;;;;;7.00;4.90;;;20.50;50.00;;;;;;4972134;28;20042;-39
2021/04/14 16:55:32;;;;;;;6.90;5.13;;;20.50;50.00;;;;;;4980354;28;20034;-42
2021/04/14 16:57:58;;;;;;;5.47;4.93;;;20.60;49.50;;;;;;4968911;28;20050;-43
2021/04/14 17:00:25;;;;;;;5.82;4.80;;;20.50;49.10;;;;;;4969320;28;20047;-41
2021/04/14 17:02:51;;;;;;;4.80;4.25;;;20.60;48.60;;;;;;4966883;28;20424;-43
2021/04/14 17:05:17;;;;;;;9.75;4.40;;;20.50;48.80;;;;;;4968018;28;20059;-40
2021/04/14 17:07:43;;;;;;;5.25;4.05;;;20.50;49.50;;;;;;4978943;28;20046;-43
2021/04/14 17:10:09;;;;;;;5.32;4.07;;;20.50;49.30;;;;;;4985502;28;20046;-43
2021/04/14 17:12:35;;;;;;;4.80;4.30;;;20.40;49.50;;;;;;4985316;28;20038;-43
2021/04/14 17:15:00;;;;;;;4.63;4.07;;;20.40;50.00;;;;;;4982574;28;20059;-40
2021/04/14 17:17:26;;;;;;;4.72;3.88;;;20.40;48.50;;;;;;5007826;28;20412;-43
2021/04/14 17:19:52;;;;;;;6.07;4.57;;;20.50;49.30;;;;;;4978503;28;20043;-43
2021/04/14 17:22:17;;;;;;;4.50;4.10;;;20.60;49.20;;;;;;4984873;28;20043;-43
2021/04/14 17:24:43;;;;;;;5.97;4.25;;;20.50;49.10;;;;;;4981575;28;20069;-45
2021/04/14 17:27:08;;;;;;;4.20;3.90;;;20.50;49.50;;;;;;4975223;28;20042;-44
2021/04/14 17:29:34;;;;;;;6.18;3.78;;;20.40;49.00;;;;;;4981983;28;20047;-43
2021/04/14 17:32:00;;;;;;;5.00;3.85;;;20.50;49.30;;;;;;4972102;28;20141;-46
2021/04/14 17:34:25;;;;;;;3.20;3.00;;;20.60;48.80;;;;;;4977789;28;20069;-42
2021/04/14 17:36:51;;;;;;;6.70;3.58;;;20.60;48.80;;;;;;4985975;28;20176;-43
2021/04/14 17:39:17;;;;;;;5.63;3.47;;;20.70;48.30;;;;;;4985075;28;20050;-42
2021/04/14 17:41:43;;;;;;;4.05;3.25;;;20.50;48.90;;;;;;4980671;28;20130;-39
2021/04/14 17:44:09;;;;;;;3.47;3.17;;;20.40;49.70;;;;;;4996552;28;20129;-40
2021/04/14 17:46:35;;;;;;;3.63;3.40;;;20.40;50.00;;;;;;4978293;28;20046;-40
2021/04/14 17:49:00;;;;;;;3.42;3.13;;;20.40;50.70;;;;;;4979728;28;20054;-41
2021/04/14 17:51:26;;;;;;;4.45;2.80;;;20.30;50.70;;;;;;5016462;28;20133;-41
2021/04/14 17:53:52;;;;;;;5.47;3.55;;;20.40;51.10;;;;;;4977953;28;20038;-41
2021/04/14 17:56:17;;;;;;;4.28;3.67;;;20.60;51.00;;;;;;4973013;28;20104;-41
2021/04/14 17:58:43;;;;;;;4.43;4.03;;;20.50;51.50;;;;;;4981100;28;20047;-40
2021/04/14 18:01:08;;;;;;;3.70;3.40;;;20.50;51.90;;;;;;4985812;28;20042;-40
2021/04/14 18:03:34;;;;;;;7.15;3.30;;;20.50;51.40;;;;;;5010162;28;20039;-45
2021/04/14 18:05:59;;;;;;;5.85;3.78;;;20.60;51.50;;;;;;4978478;28;20127;-44
2021/04/14 18:08:25;;;;;;;3.45;3.15;;;20.50;52.30;;;;;;4979801;28;20164;-43
2021/04/14 18:10:51;;;;;;;3.78;3.50;;;20.50;51.40;;;;;;4967206;28;20424;-42
2021/04/14 18:13:16;;;;;;;3.53;3.33;;;20.50;51.20;;;;;;4973125;28;20520;-41
2021/04/14 18:15:42;;;;;;;5.68;3.63;;;20.50;51.10;;;;;;4959405;28;20111;-42
2021/04/14 18:18:18;;;;;;;4.80;4.13;;;20.50;51.70;;;;;;4976922;28;20042;-43
2021/04/14 18:20:46;;;;;;;4.38;3.55;;;20.40;51.60;;;;;;5017906;28;20049;-43
2021/04/14 18:23:15;;;;;;;4.13;3.72;;;20.50;51.40;;;;;;4977072;28;20062;-45
2021/04/14 18:25:40;;;;;;;4.95;3.42;;;20.40;51.20;;;;;;4979289;28;20562;-44
2021/04/14 18:28:06;;;;;;;4.05;3.65;;;20.40;51.10;;;;;;4978628;28;20050;-44
2021/04/14 18:30:32;;;;;;;4.43;3.35;;;20.30;51.30;;;;;;4984874;28;20050;-41
2021/04/14 18:32:58;;;;;;;3.53;3.22;;;20.30;51.90;;;;;;4984523;28;20133;-43
2021/04/14 18:35:24;;;;;;;12.38;3.25;;;20.40;51.10;;;;;;5003568;28;20042;-43
2021/04/14 18:37:49;;;;;;;5.65;3.90;;;20.40;51.50;;;;;;4979536;28;20123;-42
2021/04/14 18:40:15;;;;;;;4.55;3.50;;;20.40;51.60;;;;;;4977678;28;20038;-43
2021/04/14 18:42:41;;;;;;;4.57;3.10;;;20.50;51.90;;;;;;4976184;28;20053;-43
2021/04/14 18:45:09;;;;;;;4.05;3.70;;;20.40;51.60;;;;;;4977132;28;20046;-44
2021/04/14 18:47:35;;;;;;;3.28;3.00;;;20.50;51.80;;;;;;4981111;28;20103;-44
2021/04/14 18:50:00;;;;;;;5.32;3.33;;;20.50;51.50;;;;;;4982556;28;20042;-43
2021/04/14 18:52:27;;;;;;;3.03;2.80;;;20.50;51.50;;;;;;4981416;28;20082;-44
2021/04/14 18:54:54;;;;;;;3.35;3.15;;;20.50;50.90;;;;;;4981350;28;20049;-45
2021/04/14 18:57:20;;;;;;;4.90;3.50;;;20.50;51.20;;;;;;4979957;28;20103;-43
2021/04/14 18:59:45;;;;;;;3.67;3.38;;;20.50;51.40;;;;;;4971832;28;20046;-43
2021/04/14 19:02:11;;;;;;;4.78;3.45;;;20.50;51.30;;;;;;4981285;28;20050;-44